createdAt,value
2019-01-29T00:00:27.097Z,1.20
2019-01-29T00:01:27.093Z,1.20
2019-01-29T00:02:27.033Z,1.30
2019-01-29T00:03:27.044Z,1.40
2019-01-29T00:04:27.068Z,1.30
2019-01-29T00:05:26.991Z,1.30
2019-01-29T00:06:26.993Z,1.20
2019-01-29T00:07:26.983Z,1.20
2019-01-29T00:08:26.960Z,1.20
2019-01-29T00:09:26.966Z,1.20
2019-01-29T00:10:26.958Z,1.30
2019-01-29T00:11:26.999Z,1.30
2019-01-29T00:12:26.930Z,1.50
2019-01-29T00:13:26.992Z,1.30
2019-01-29T00:14:26.885Z,1.20
2019-01-29T00:15:26.885Z,1.20
2019-01-29T00:16:26.888Z,1.20
2019-01-29T00:17:26.850Z,1.50
2019-01-29T00:18:26.989Z,1.50
2019-01-29T00:19:26.851Z,1.20
2019-01-29T00:20:26.819Z,1.20
2019-01-29T00:21:26.829Z,1.40
2019-01-29T00:22:33.356Z,1.40
2019-01-29T00:23:27.785Z,1.40
2019-01-29T00:24:26.781Z,1.20
2019-01-29T00:25:26.766Z,1.30
2019-01-29T00:26:26.783Z,1.30
2019-01-29T00:27:26.812Z,1.30
2019-01-29T00:28:26.741Z,1.30
2019-01-29T00:29:26.750Z,1.30
2019-01-29T00:30:26.716Z,1.30
2019-01-29T00:31:26.743Z,1.30
2019-01-29T00:32:26.686Z,1.30
2019-01-29T00:33:26.689Z,1.20
2019-01-29T00:34:26.694Z,1.30
2019-01-29T00:35:26.682Z,1.30
2019-01-29T00:36:26.647Z,1.10
2019-01-29T00:37:26.645Z,1.30
2019-01-29T00:38:26.613Z,1.50
2019-01-29T00:39:26.618Z,1.30
2019-01-29T00:40:26.596Z,1.30
2019-01-29T00:41:26.631Z,1.30
2019-01-29T00:42:26.577Z,1.20
2019-01-29T00:43:26.636Z,1.20
2019-01-29T00:44:26.625Z,1.20
2019-01-29T00:45:26.568Z,1.30
2019-01-29T00:46:26.533Z,1.30
2019-01-29T00:47:26.546Z,1.40
2019-01-29T00:48:26.561Z,1.40
2019-01-29T00:49:26.490Z,1.20
2019-01-29T00:50:26.497Z,1.30
2019-01-29T00:51:26.468Z,1.40
2019-01-29T00:52:26.469Z,1.30
2019-01-29T00:53:26.446Z,1.30
2019-01-29T00:54:26.452Z,1.30
2019-01-29T00:55:26.494Z,1.30
2019-01-29T00:56:26.429Z,1.40
2019-01-29T00:57:26.450Z,1.40
2019-01-29T00:58:26.387Z,1.30
2019-01-29T00:59:26.384Z,1.40
2019-01-29T01:00:26.376Z,1.40
2019-01-29T01:01:26.351Z,1.40
2019-01-29T01:02:26.357Z,1.30
2019-01-29T01:03:26.344Z,1.30
2019-01-29T01:04:26.330Z,1.30
2019-01-29T01:05:26.347Z,1.30
2019-01-29T01:06:26.334Z,1.50
2019-01-29T01:07:26.360Z,1.30
2019-01-29T01:08:26.278Z,1.20
2019-01-29T01:09:26.266Z,1.30
2019-01-29T01:10:26.254Z,1.30
2019-01-29T01:11:26.255Z,1.30
2019-01-29T01:12:26.243Z,1.30
2019-01-29T01:13:26.287Z,1.30
2019-01-29T01:14:26.281Z,1.40
2019-01-29T01:15:26.232Z,1.30
2019-01-29T01:16:26.202Z,1.30
2019-01-29T01:17:26.213Z,1.30
2019-01-29T01:18:26.203Z,1.40
2019-01-29T01:19:26.177Z,1.40
2019-01-29T01:20:26.157Z,1.40
2019-01-29T01:21:26.212Z,1.30
2019-01-29T01:22:26.127Z,1.20
2019-01-29T01:23:26.146Z,1.30
2019-01-29T01:24:26.099Z,1.60
2019-01-29T01:25:26.105Z,1.50
2019-01-29T01:26:26.072Z,1.40
2019-01-29T01:27:26.108Z,1.30
2019-01-29T01:28:26.081Z,1.40
2019-01-29T01:29:26.045Z,1.40
2019-01-29T01:30:26.044Z,1.60
2019-01-29T01:31:26.078Z,1.40
2019-01-29T01:32:26.141Z,1.10
2019-01-29T01:33:26.001Z,1.30
2019-01-29T01:34:26.057Z,1.30
2019-01-29T01:35:26.033Z,1.30
2019-01-29T01:36:25.964Z,1.20
2019-01-29T01:37:25.964Z,1.40
2019-01-29T01:38:25.976Z,1.30
2019-01-29T01:39:25.923Z,1.30
2019-01-29T01:40:26.187Z,1.30
2019-01-29T01:41:25.899Z,1.40
2019-01-29T01:42:25.887Z,1.30
2019-01-29T01:43:25.951Z,1.20
2019-01-29T01:44:25.865Z,1.30
2019-01-29T01:45:25.980Z,1.20
2019-01-29T01:46:25.865Z,1.40
2019-01-29T01:47:25.838Z,1.40
2019-01-29T01:48:25.846Z,1.40
2019-01-29T01:49:25.806Z,1.20
2019-01-29T01:50:25.805Z,1.60
2019-01-29T01:51:26.117Z,1.20
2019-01-29T01:52:25.791Z,1.20
2019-01-29T01:53:25.798Z,1.30
2019-01-29T01:54:25.750Z,1.40
2019-01-29T01:55:25.776Z,1.20
2019-01-29T01:56:25.728Z,1.20
2019-01-29T01:57:25.721Z,1.20
2019-01-29T01:58:25.731Z,1.40
2019-01-29T01:59:25.708Z,1.30
2019-01-29T02:00:25.691Z,1.40
2019-01-29T02:01:25.689Z,1.20
2019-01-29T02:02:25.814Z,1.30
2019-01-29T02:03:25.722Z,1.40
2019-01-29T02:04:25.638Z,1.30
2019-01-29T02:05:25.739Z,1.30
2019-01-29T02:06:25.615Z,1.40
2019-01-29T02:07:25.611Z,1.30
2019-01-29T02:08:25.608Z,1.30
2019-01-29T02:09:25.587Z,1.40
2019-01-29T02:10:25.635Z,1.40
2019-01-29T02:11:25.669Z,1.30
2019-01-29T02:12:25.692Z,1.30
2019-01-29T02:13:25.624Z,1.40
2019-01-29T02:14:25.548Z,1.50
2019-01-29T02:15:25.575Z,1.30
2019-01-29T02:16:25.517Z,1.20
2019-01-29T02:17:25.548Z,1.50
2019-01-29T02:18:25.631Z,1.30
2019-01-29T02:19:25.483Z,1.60
2019-01-29T02:20:25.456Z,1.20
2019-01-29T02:21:25.492Z,1.30
2019-01-29T02:22:25.445Z,1.30
2019-01-29T02:23:25.430Z,1.50
2019-01-29T02:24:25.431Z,1.30
2019-01-29T02:25:25.430Z,1.30
2019-01-29T02:26:25.394Z,1.40
2019-01-29T02:27:25.431Z,1.50
2019-01-29T02:28:25.408Z,1.30
2019-01-29T02:29:25.458Z,1.40
2019-01-29T02:30:25.359Z,1.50
2019-01-29T02:31:25.345Z,1.40
2019-01-29T02:32:25.337Z,1.20
2019-01-29T02:33:25.345Z,1.20
2019-01-29T02:34:25.328Z,1.30
2019-01-29T02:35:25.295Z,1.40
2019-01-29T02:36:25.310Z,1.20
2019-01-29T02:37:25.263Z,1.50
2019-01-29T02:38:25.276Z,1.20
2019-01-29T02:39:25.262Z,1.30
2019-01-29T02:40:25.243Z,1.20
2019-01-29T02:41:25.235Z,1.30
2019-01-29T02:42:25.226Z,1.30
2019-01-29T02:43:25.232Z,1.30
2019-01-29T02:44:25.203Z,1.40
2019-01-29T02:45:25.186Z,1.20
2019-01-29T02:46:25.165Z,1.30
2019-01-29T02:47:25.245Z,1.40
2019-01-29T02:48:25.226Z,1.40
2019-01-29T02:49:25.144Z,1.30
2019-01-29T02:50:25.121Z,1.40
2019-01-29T02:51:25.159Z,1.40
2019-01-29T02:52:25.115Z,1.30
2019-01-29T02:53:25.085Z,1.30
2019-01-29T02:54:25.094Z,1.30
2019-01-29T02:55:25.082Z,1.20
2019-01-29T02:56:25.088Z,1.50
2019-01-29T02:57:25.065Z,1.40
2019-01-29T02:58:25.060Z,1.30
2019-01-29T02:59:25.076Z,1.20
2019-01-29T03:00:25.014Z,1.40
2019-01-29T03:01:25.004Z,1.40
2019-01-29T03:02:24.986Z,1.20
2019-01-29T03:03:25.010Z,1.40
2019-01-29T03:04:24.977Z,1.50
2019-01-29T03:05:24.951Z,1.30
2019-01-29T03:06:24.937Z,1.20
2019-01-29T03:07:25.365Z,1.40
2019-01-29T03:08:24.930Z,1.30
2019-01-29T03:09:24.973Z,1.30
2019-01-29T03:10:24.899Z,1.30
2019-01-29T03:11:24.907Z,1.30
2019-01-29T03:12:24.873Z,1.30
2019-01-29T03:13:24.867Z,1.30
2019-01-29T03:14:24.863Z,1.20
2019-01-29T03:15:24.846Z,1.30
2019-01-29T03:16:24.835Z,1.20
2019-01-29T03:17:24.856Z,1.40
2019-01-29T03:18:24.864Z,1.40
2019-01-29T03:19:24.809Z,1.30
2019-01-29T03:20:24.783Z,1.30
2019-01-29T03:21:24.767Z,1.40
2019-01-29T03:22:24.761Z,1.30
2019-01-29T03:23:27.541Z,1.30
2019-01-29T03:24:24.745Z,1.30
2019-01-29T03:25:24.801Z,1.20
2019-01-29T03:26:24.719Z,1.40
2019-01-29T03:27:24.717Z,1.40
2019-01-29T03:28:24.711Z,1.20
2019-01-29T03:29:24.684Z,1.20
2019-01-29T03:30:24.679Z,1.30
2019-01-29T03:31:24.654Z,1.30
2019-01-29T03:32:24.665Z,1.40
2019-01-29T03:33:24.641Z,1.10
2019-01-29T03:34:24.623Z,1.30
2019-01-29T03:35:24.625Z,1.30
2019-01-29T03:36:24.600Z,1.40
2019-01-29T03:37:24.594Z,1.30
2019-01-29T03:38:24.594Z,1.40
2019-01-29T03:39:24.571Z,1.50
2019-01-29T03:40:24.566Z,1.20
2019-01-29T03:41:24.541Z,1.30
2019-01-29T03:42:24.563Z,1.40
2019-01-29T03:43:24.553Z,1.30
2019-01-29T03:44:24.516Z,1.40
2019-01-29T03:45:24.520Z,1.30
2019-01-29T03:46:24.511Z,1.30
2019-01-29T03:47:24.595Z,1.50
2019-01-29T03:48:24.541Z,1.50
2019-01-29T03:49:24.479Z,1.20
2019-01-29T03:50:24.497Z,1.40
2019-01-29T03:51:24.437Z,1.40
2019-01-29T03:52:24.443Z,1.30
2019-01-29T03:53:24.873Z,1.30
2019-01-29T03:54:24.428Z,1.20
2019-01-29T03:55:24.438Z,1.20
2019-01-29T03:56:24.367Z,1.30
2019-01-29T03:57:24.379Z,1.40
2019-01-29T03:58:24.398Z,1.50
2019-01-29T03:59:24.359Z,1.30
2019-01-29T04:00:24.422Z,1.30
2019-01-29T04:01:24.347Z,1.30
2019-01-29T04:02:24.390Z,1.20
2019-01-29T04:03:24.294Z,1.20
2019-01-29T04:04:24.284Z,1.50
2019-01-29T04:05:24.277Z,1.30
2019-01-29T04:06:24.288Z,1.20
2019-01-29T04:07:24.303Z,1.40
2019-01-29T04:08:24.234Z,1.40
2019-01-29T04:09:24.234Z,1.40
2019-01-29T04:10:24.228Z,1.20
2019-01-29T04:11:24.204Z,1.40
2019-01-29T04:12:24.193Z,1.30
2019-01-29T04:13:24.274Z,1.40
2019-01-29T04:14:24.179Z,1.40
2019-01-29T04:15:24.167Z,1.40
2019-01-29T04:16:24.147Z,1.30
2019-01-29T04:17:24.133Z,1.20
2019-01-29T04:18:24.241Z,1.30
2019-01-29T04:19:24.109Z,1.40
2019-01-29T04:20:24.112Z,1.50
2019-01-29T04:21:24.133Z,1.50
2019-01-29T04:22:24.116Z,1.20
2019-01-29T04:23:24.075Z,1.50
2019-01-29T04:24:24.054Z,1.50
2019-01-29T04:25:24.074Z,1.30
2019-01-29T04:26:24.049Z,1.30
2019-01-29T04:27:24.017Z,1.30
2019-01-29T04:28:24.041Z,1.40
2019-01-29T04:29:24.000Z,1.40
2019-01-29T04:30:24.028Z,1.40
2019-01-29T04:31:23.987Z,1.30
2019-01-29T04:32:23.976Z,1.10
2019-01-29T04:33:23.957Z,1.50
2019-01-29T04:34:23.937Z,1.30
2019-01-29T04:35:23.933Z,1.50
2019-01-29T04:36:24.004Z,1.20
2019-01-29T04:37:23.904Z,1.60
2019-01-29T04:38:23.908Z,1.40
2019-01-29T04:39:23.896Z,1.10
2019-01-29T04:40:23.884Z,1.30
2019-01-29T04:41:23.885Z,1.50
2019-01-29T04:42:23.860Z,1.30
2019-01-29T04:43:23.868Z,1.50
2019-01-29T04:44:23.852Z,1.30
2019-01-29T04:45:23.826Z,1.30
2019-01-29T04:46:23.865Z,1.20
2019-01-29T04:47:23.866Z,1.30
2019-01-29T04:48:23.895Z,1.50
2019-01-29T04:49:23.803Z,1.30
2019-01-29T04:50:23.772Z,1.30
2019-01-29T04:51:23.774Z,1.40
2019-01-29T04:52:23.739Z,1.30
2019-01-29T04:53:23.743Z,1.20
2019-01-29T04:54:23.732Z,1.30
2019-01-29T04:55:23.729Z,1.50
2019-01-29T04:56:23.726Z,1.30
2019-01-29T04:57:23.711Z,1.30
2019-01-29T04:58:23.670Z,1.30
2019-01-29T04:59:23.688Z,1.40
2019-01-29T05:00:23.669Z,1.30
2019-01-29T05:01:23.712Z,1.40
2019-01-29T05:02:23.637Z,1.30
2019-01-29T05:03:24.185Z,1.40
2019-01-29T05:04:23.629Z,1.30
2019-01-29T05:05:23.671Z,1.40
2019-01-29T05:06:23.637Z,1.40
2019-01-29T05:07:23.639Z,1.50
2019-01-29T05:08:23.564Z,1.40
2019-01-29T05:09:23.578Z,1.50
2019-01-29T05:10:23.635Z,1.40
2019-01-29T05:11:23.554Z,1.30
2019-01-29T05:12:23.513Z,1.30
2019-01-29T05:13:23.512Z,1.40
2019-01-29T05:14:23.488Z,1.30
2019-01-29T05:15:23.476Z,1.40
2019-01-29T05:16:23.579Z,1.20
2019-01-29T05:17:23.495Z,1.30
2019-01-29T05:18:23.471Z,1.40
2019-01-29T05:19:23.457Z,1.20
2019-01-29T05:20:23.536Z,1.40
2019-01-29T05:21:23.424Z,1.40
2019-01-29T05:22:23.403Z,1.50
2019-01-29T05:23:23.415Z,3.20
2019-01-29T05:24:24.876Z,3.40
2019-01-29T05:25:23.373Z,3.70
2019-01-29T05:26:23.507Z,3.50
2019-01-29T05:27:23.348Z,3.80
2019-01-29T05:28:23.394Z,4.40
2019-01-29T05:29:23.322Z,4.20
2019-01-29T05:30:23.325Z,4.20
2019-01-29T05:31:23.302Z,1.40
2019-01-29T05:32:23.324Z,1.30
2019-01-29T05:33:23.397Z,1.60
2019-01-29T05:34:23.272Z,2.30
2019-01-29T05:35:23.272Z,1.80
2019-01-29T05:36:23.240Z,1.80
2019-01-29T05:37:23.228Z,1.90
2019-01-29T05:38:23.287Z,1.80
2019-01-29T05:39:23.206Z,1.80
2019-01-29T05:40:23.211Z,1.90
2019-01-29T05:41:23.187Z,1.90
2019-01-29T05:42:23.184Z,2.00
2019-01-29T05:43:23.156Z,1.90
2019-01-29T05:44:23.180Z,1.80
2019-01-29T05:45:23.204Z,2.30
2019-01-29T05:46:25.227Z,2.20
2019-01-29T05:47:23.128Z,2.30
2019-01-29T05:48:23.168Z,1.80
2019-01-29T05:49:23.098Z,2.30
2019-01-29T05:50:23.082Z,1.80
2019-01-29T05:51:23.076Z,1.90
2019-01-29T05:52:23.082Z,2.10
2019-01-29T05:53:23.112Z,2.00
2019-01-29T05:54:23.039Z,1.80
2019-01-29T05:55:23.029Z,2.00
2019-01-29T05:56:23.017Z,1.80
2019-01-29T05:57:23.011Z,2.20
2019-01-29T05:58:23.011Z,1.80
2019-01-29T05:59:22.983Z,1.70
2019-01-29T06:00:23.061Z,1.90
2019-01-29T06:01:22.976Z,1.60
2019-01-29T06:02:22.951Z,1.80
2019-01-29T06:03:22.949Z,1.80
2019-01-29T06:04:22.937Z,2.00
2019-01-29T06:05:22.930Z,1.60
2019-01-29T06:06:22.913Z,1.50
2019-01-29T06:07:22.901Z,1.80
2019-01-29T06:08:22.901Z,1.90
2019-01-29T06:09:22.869Z,1.50
2019-01-29T06:10:22.864Z,1.70
2019-01-29T06:11:22.856Z,1.60
2019-01-29T06:12:22.875Z,1.70
2019-01-29T06:13:22.821Z,1.60
2019-01-29T06:14:22.809Z,1.70
2019-01-29T06:15:22.798Z,1.50
2019-01-29T06:16:22.801Z,1.50
2019-01-29T06:17:27.567Z,1.70
2019-01-29T06:18:22.811Z,1.70
2019-01-29T06:19:22.770Z,1.70
2019-01-29T06:20:22.741Z,1.60
2019-01-29T06:21:22.762Z,1.50
2019-01-29T06:22:22.731Z,1.50
2019-01-29T06:23:22.744Z,1.50
2019-01-29T06:24:25.795Z,1.80
2019-01-29T06:25:22.711Z,1.80
2019-01-29T06:26:22.693Z,1.60
2019-01-29T06:27:22.682Z,1.60
2019-01-29T06:28:22.668Z,1.80
2019-01-29T06:29:22.648Z,1.50
2019-01-29T06:30:22.640Z,1.60
2019-01-29T06:31:22.623Z,1.90
2019-01-29T06:32:22.625Z,1.70
2019-01-29T06:33:22.612Z,1.60
2019-01-29T06:34:22.631Z,1.70
2019-01-29T06:35:22.631Z,1.80
2019-01-29T06:36:22.561Z,1.70
2019-01-29T06:37:22.557Z,1.70
2019-01-29T06:38:22.597Z,1.80
2019-01-29T06:39:22.535Z,1.60
2019-01-29T06:40:22.520Z,1.60
2019-01-29T06:41:22.520Z,1.70
2019-01-29T06:42:22.509Z,1.90
2019-01-29T06:43:22.484Z,1.70
2019-01-29T06:44:22.476Z,1.50
2019-01-29T06:45:22.465Z,1.70
2019-01-29T06:46:22.440Z,1.70
2019-01-29T06:47:22.431Z,1.50
2019-01-29T06:48:22.446Z,1.50
2019-01-29T06:49:22.424Z,1.70
2019-01-29T06:50:22.413Z,1.40
2019-01-29T06:51:22.382Z,1.70
2019-01-29T06:52:22.374Z,1.60
2019-01-29T06:53:22.373Z,1.50
2019-01-29T06:54:22.983Z,1.70
2019-01-29T06:55:22.371Z,1.50
2019-01-29T06:56:22.399Z,1.70
2019-01-29T06:57:22.318Z,1.50
2019-01-29T06:58:22.312Z,1.60
2019-01-29T06:59:22.292Z,1.70
2019-01-29T07:00:22.355Z,1.70
2019-01-29T07:01:22.270Z,1.30
2019-01-29T07:02:22.305Z,1.70
2019-01-29T07:03:22.281Z,1.70
2019-01-29T07:04:22.253Z,1.60
2019-01-29T07:05:22.225Z,1.50
2019-01-29T07:06:22.213Z,1.60
2019-01-29T07:07:22.205Z,1.30
2019-01-29T07:08:22.197Z,1.30
2019-01-29T07:09:22.186Z,1.50
2019-01-29T07:10:22.180Z,1.30
2019-01-29T07:11:22.159Z,1.40
2019-01-29T07:12:22.144Z,1.40
2019-01-29T07:13:22.153Z,1.30
2019-01-29T07:14:22.124Z,1.40
2019-01-29T07:15:22.110Z,1.30
2019-01-29T07:16:22.138Z,1.30
2019-01-29T07:17:22.088Z,1.60
2019-01-29T07:18:22.154Z,1.40
2019-01-29T07:19:22.069Z,1.30
2019-01-29T07:20:22.057Z,1.20
2019-01-29T07:21:22.051Z,1.30
2019-01-29T07:22:22.051Z,1.30
2019-01-29T07:23:22.059Z,1.20
2019-01-29T07:24:22.012Z,1.20
2019-01-29T07:25:22.001Z,1.30
2019-01-29T07:26:21.990Z,1.10
2019-01-29T07:27:21.981Z,1.10
2019-01-29T07:28:21.974Z,1.10
2019-01-29T07:29:21.964Z,1.00
2019-01-29T07:30:21.946Z,0.90
2019-01-29T07:31:21.979Z,1.00
2019-01-29T07:32:21.973Z,1.10
2019-01-29T07:33:21.924Z,0.90
2019-01-29T07:34:21.911Z,1.10
2019-01-29T07:35:21.897Z,0.90
2019-01-29T07:36:21.894Z,1.10
2019-01-29T07:37:22.362Z,0.90
2019-01-29T07:38:21.858Z,1.20
2019-01-29T07:39:21.850Z,1.00
2019-01-29T07:40:21.876Z,0.90
2019-01-29T07:41:21.816Z,0.90
2019-01-29T07:42:21.819Z,0.80
2019-01-29T07:43:21.795Z,1.10
2019-01-29T07:44:21.794Z,0.90
2019-01-29T07:45:21.805Z,0.80
2019-01-29T07:46:21.772Z,1.20
2019-01-29T07:47:21.760Z,1.00
2019-01-29T07:48:21.811Z,1.10
2019-01-29T07:49:21.734Z,1.00
2019-01-29T07:50:21.722Z,0.90
2019-01-29T07:51:21.718Z,0.80
2019-01-29T07:52:21.716Z,0.90
2019-01-29T07:53:21.774Z,1.10
2019-01-29T07:54:21.693Z,1.10
2019-01-29T07:55:21.659Z,1.00
2019-01-29T07:56:21.681Z,1.00
2019-01-29T07:57:21.752Z,1.20
2019-01-29T07:58:21.631Z,1.10
2019-01-29T07:59:32.677Z,1.10
2019-01-29T08:00:22.680Z,1.20
2019-01-29T08:01:21.608Z,1.10
2019-01-29T08:02:21.591Z,1.10
2019-01-29T08:03:21.596Z,1.10
2019-01-29T08:04:21.598Z,1.10
2019-01-29T08:05:21.562Z,1.00
2019-01-29T08:06:21.547Z,1.10
2019-01-29T08:07:21.572Z,1.10
2019-01-29T08:08:21.555Z,1.20
2019-01-29T08:09:21.526Z,1.20
2019-01-29T08:10:21.554Z,1.20
2019-01-29T08:11:21.486Z,1.40
2019-01-29T08:12:21.488Z,1.10
2019-01-29T08:13:21.473Z,1.00
2019-01-29T08:14:21.463Z,1.20
2019-01-29T08:15:21.438Z,1.50
2019-01-29T08:16:21.457Z,1.10
2019-01-29T08:17:21.498Z,1.10
2019-01-29T08:18:21.420Z,1.10
2019-01-29T08:19:21.391Z,1.10
2019-01-29T08:20:21.403Z,1.20
2019-01-29T08:21:21.370Z,1.10
2019-01-29T08:22:21.364Z,1.20
2019-01-29T08:23:21.375Z,1.30
2019-01-29T08:24:21.341Z,1.30
2019-01-29T08:25:21.339Z,1.20
2019-01-29T08:26:21.406Z,1.00
2019-01-29T08:27:21.352Z,1.50
2019-01-29T08:28:21.327Z,1.20
2019-01-29T08:29:21.310Z,1.10
2019-01-29T08:30:21.284Z,1.30
2019-01-29T08:31:21.299Z,1.20
2019-01-29T08:32:21.242Z,1.30
2019-01-29T08:33:21.265Z,1.30
2019-01-29T08:34:21.223Z,1.10
2019-01-29T08:35:21.296Z,1.30
2019-01-29T08:36:22.161Z,1.10
2019-01-29T08:37:21.191Z,1.20
2019-01-29T08:38:21.174Z,1.30
2019-01-29T08:39:21.195Z,1.40
2019-01-29T08:40:21.237Z,1.30
2019-01-29T08:41:21.137Z,1.30
2019-01-29T08:42:21.172Z,1.30
2019-01-29T08:43:21.117Z,1.40
2019-01-29T08:44:21.131Z,1.40
2019-01-29T08:45:21.122Z,1.50
2019-01-29T08:46:21.081Z,1.40
2019-01-29T08:47:21.107Z,1.30
2019-01-29T08:48:21.072Z,1.30
2019-01-29T08:49:21.063Z,1.50
2019-01-29T08:50:21.056Z,1.20
2019-01-29T08:51:21.032Z,1.40
2019-01-29T08:52:21.027Z,1.40
2019-01-29T08:53:21.019Z,1.50
2019-01-29T08:54:21.035Z,1.40
2019-01-29T08:55:21.050Z,1.30
2019-01-29T08:56:21.102Z,1.40
2019-01-29T08:57:20.957Z,1.10
2019-01-29T08:58:27.020Z,1.30
2019-01-29T08:59:21.971Z,1.40
2019-01-29T09:00:20.936Z,1.40
2019-01-29T09:01:20.981Z,1.40
2019-01-29T09:02:20.922Z,1.40
2019-01-29T09:03:21.992Z,1.20
2019-01-29T09:04:20.988Z,3.20
2019-01-29T09:05:20.956Z,3.00
2019-01-29T09:06:20.934Z,1.90
2019-01-29T09:07:20.891Z,1.80
2019-01-29T09:08:20.854Z,1.90
2019-01-29T09:09:20.829Z,1.70
2019-01-29T09:10:20.822Z,1.60
2019-01-29T09:11:20.966Z,1.50
2019-01-29T09:12:20.836Z,1.50
2019-01-29T09:13:20.776Z,1.50
2019-01-29T09:14:20.762Z,1.60
2019-01-29T09:15:20.756Z,1.50
2019-01-29T09:16:21.016Z,1.40
2019-01-29T09:17:20.741Z,1.60
2019-01-29T09:18:20.744Z,1.70
2019-01-29T09:19:20.749Z,1.60
2019-01-29T09:20:20.748Z,1.40
2019-01-29T09:21:21.338Z,1.50
2019-01-29T09:22:20.692Z,1.40
2019-01-29T09:23:21.337Z,1.60
2019-01-29T09:24:20.667Z,1.50
2019-01-29T09:25:22.711Z,1.60
2019-01-29T09:26:20.662Z,1.40
2019-01-29T09:27:20.619Z,1.40
2019-01-29T09:28:20.693Z,1.60
2019-01-29T09:29:20.595Z,1.40
2019-01-29T09:30:20.595Z,1.40
2019-01-29T09:31:20.597Z,1.40
2019-01-29T09:32:20.586Z,1.40
2019-01-29T09:33:20.568Z,1.40
2019-01-29T09:34:20.538Z,1.40
2019-01-29T09:35:20.566Z,1.50
2019-01-29T09:36:20.578Z,1.80
2019-01-29T09:37:20.551Z,1.60
2019-01-29T09:38:20.509Z,1.40
2019-01-29T09:39:20.483Z,1.50
2019-01-29T09:40:20.547Z,1.40
2019-01-29T09:41:20.510Z,1.40
2019-01-29T09:42:20.568Z,1.50
2019-01-29T09:43:20.471Z,1.40
2019-01-29T09:44:20.449Z,1.40
2019-01-29T09:45:20.418Z,1.50
2019-01-29T09:46:20.414Z,1.50
2019-01-29T09:47:20.403Z,1.70
2019-01-29T09:48:20.380Z,1.40
2019-01-29T09:49:20.405Z,1.30
2019-01-29T09:50:20.360Z,1.40
2019-01-29T09:51:20.349Z,1.50
2019-01-29T09:52:20.377Z,1.30
2019-01-29T09:53:20.333Z,1.40
2019-01-29T09:54:20.316Z,1.40
2019-01-29T09:55:28.126Z,1.30
2019-01-29T09:56:21.330Z,1.50
2019-01-29T09:57:20.299Z,1.30
2019-01-29T09:58:20.286Z,1.50
2019-01-29T09:59:20.280Z,1.40
2019-01-29T10:00:21.674Z,1.50
2019-01-29T10:01:20.253Z,1.60
2019-01-29T10:02:20.234Z,1.80
2019-01-29T10:03:20.211Z,1.70
2019-01-29T10:04:20.224Z,1.40
2019-01-29T10:05:20.202Z,1.50
2019-01-29T10:06:20.218Z,1.60
2019-01-29T10:07:20.173Z,1.40
2019-01-29T10:08:20.153Z,1.40
2019-01-29T10:09:20.204Z,1.40
2019-01-29T10:10:20.138Z,1.40
2019-01-29T10:11:20.151Z,1.50
2019-01-29T10:12:20.220Z,1.30
2019-01-29T10:13:20.137Z,1.50
2019-01-29T10:14:20.091Z,1.50
2019-01-29T10:15:20.098Z,1.30
2019-01-29T10:16:20.087Z,1.30
2019-01-29T10:17:20.081Z,1.60
2019-01-29T10:18:20.047Z,1.50
2019-01-29T10:19:20.041Z,1.50
2019-01-29T10:20:20.037Z,1.50
2019-01-29T10:21:20.026Z,1.60
2019-01-29T10:22:20.166Z,1.50
2019-01-29T10:23:19.993Z,1.40
2019-01-29T10:24:19.988Z,1.50
2019-01-29T10:25:19.970Z,1.40
2019-01-29T10:26:19.974Z,1.50
2019-01-29T10:27:19.952Z,1.40
2019-01-29T10:28:19.977Z,1.40
2019-01-29T10:29:19.955Z,1.30
2019-01-29T10:30:19.913Z,1.40
2019-01-29T10:31:19.912Z,1.40
2019-01-29T10:32:19.889Z,1.50
2019-01-29T10:33:19.905Z,1.60
2019-01-29T10:34:19.897Z,1.30
2019-01-29T10:35:19.855Z,1.80
2019-01-29T10:36:19.850Z,1.40
2019-01-29T10:37:19.831Z,1.40
2019-01-29T10:38:19.850Z,1.50
2019-01-29T10:39:19.822Z,1.70
2019-01-29T10:40:19.809Z,1.50
2019-01-29T10:41:19.790Z,1.40
2019-01-29T10:42:19.946Z,1.30
2019-01-29T10:43:19.819Z,1.50
2019-01-29T10:44:19.757Z,1.50
2019-01-29T10:45:19.753Z,1.50
2019-01-29T10:46:19.727Z,1.50
2019-01-29T10:47:19.721Z,1.70
2019-01-29T10:48:19.756Z,1.70
2019-01-29T10:49:19.754Z,1.40
2019-01-29T10:50:19.702Z,1.50
2019-01-29T10:51:19.675Z,1.30
2019-01-29T10:52:19.675Z,1.30
2019-01-29T10:53:19.651Z,1.50
2019-01-29T10:54:19.660Z,1.30
2019-01-29T10:55:19.627Z,1.50
2019-01-29T10:56:19.618Z,1.40
2019-01-29T10:57:19.688Z,1.30
2019-01-29T10:58:19.659Z,1.40
2019-01-29T10:59:19.580Z,1.40
2019-01-29T11:00:19.576Z,1.60
2019-01-29T11:01:19.561Z,1.30
2019-01-29T11:02:19.586Z,1.40
2019-01-29T11:03:19.550Z,1.50
2019-01-29T11:04:19.541Z,1.40
2019-01-29T11:05:19.533Z,1.30
2019-01-29T11:06:19.509Z,1.60
2019-01-29T11:07:19.498Z,1.40
2019-01-29T11:08:19.487Z,1.40
2019-01-29T11:09:25.369Z,1.40
2019-01-29T11:10:20.473Z,1.40
2019-01-29T11:11:19.478Z,1.30
2019-01-29T11:12:19.439Z,1.20
2019-01-29T11:13:19.440Z,1.40
2019-01-29T11:14:19.423Z,1.40
2019-01-29T11:15:19.465Z,1.40
2019-01-29T11:16:19.398Z,1.40
2019-01-29T11:17:19.386Z,1.20
2019-01-29T11:18:19.372Z,1.60
2019-01-29T11:19:19.353Z,1.40
2019-01-29T11:20:19.344Z,2.10
2019-01-29T11:21:19.389Z,1.50
2019-01-29T11:22:19.367Z,1.50
2019-01-29T11:23:19.375Z,1.40
2019-01-29T11:24:19.301Z,1.50
2019-01-29T11:25:19.297Z,1.30
2019-01-29T11:26:19.276Z,1.50
2019-01-29T11:27:19.279Z,1.50
2019-01-29T11:28:19.266Z,1.30
2019-01-29T11:29:19.258Z,1.30
2019-01-29T11:30:19.312Z,1.30
2019-01-29T11:31:19.245Z,1.40
2019-01-29T11:32:19.237Z,1.40
2019-01-29T11:33:19.225Z,1.40
2019-01-29T11:34:19.216Z,1.40
2019-01-29T11:35:19.176Z,1.30
2019-01-29T11:36:19.170Z,1.30
2019-01-29T11:37:19.198Z,1.30
2019-01-29T11:38:19.160Z,1.30
2019-01-29T11:39:19.157Z,1.40
2019-01-29T11:40:19.128Z,1.30
2019-01-29T11:41:19.858Z,1.40
2019-01-29T11:42:19.113Z,1.30
2019-01-29T11:43:19.114Z,1.30
2019-01-29T11:44:19.078Z,2.60
2019-01-29T11:45:19.066Z,1.50
2019-01-29T11:46:19.090Z,1.40
2019-01-29T11:47:19.039Z,1.30
2019-01-29T11:48:19.054Z,1.60
2019-01-29T11:49:19.068Z,1.90
2019-01-29T11:50:19.032Z,1.60
2019-01-29T11:51:19.013Z,1.50
2019-01-29T11:52:19.002Z,1.40
2019-01-29T11:53:18.975Z,1.40
2019-01-29T11:54:19.028Z,1.30
2019-01-29T11:55:18.966Z,1.30
2019-01-29T11:56:18.952Z,1.20
2019-01-29T11:57:18.930Z,1.40
2019-01-29T11:58:18.921Z,1.30
2019-01-29T11:59:18.961Z,1.20
2019-01-29T12:00:18.896Z,1.30
2019-01-29T12:01:18.909Z,1.30
2019-01-29T12:02:18.891Z,1.10
2019-01-29T12:03:18.867Z,1.20
2019-01-29T12:04:18.858Z,1.30
2019-01-29T12:05:18.878Z,0.90
2019-01-29T12:06:18.847Z,1.00
2019-01-29T12:07:19.567Z,1.00
2019-01-29T12:08:18.822Z,1.00
2019-01-29T12:09:19.052Z,1.10
2019-01-29T12:10:18.798Z,1.00
2019-01-29T12:11:18.782Z,0.90
2019-01-29T12:12:18.877Z,0.80
2019-01-29T12:13:18.762Z,1.00
2019-01-29T12:14:18.742Z,0.80
2019-01-29T12:15:18.748Z,1.00
2019-01-29T12:16:19.604Z,0.90
2019-01-29T12:17:18.785Z,1.00
2019-01-29T12:18:18.691Z,0.80
2019-01-29T12:19:18.710Z,1.00
2019-01-29T12:20:18.687Z,1.00
2019-01-29T12:21:18.658Z,0.90
2019-01-29T12:22:18.645Z,0.90
2019-01-29T12:23:18.640Z,0.80
2019-01-29T12:24:18.639Z,0.70
2019-01-29T12:25:18.641Z,0.90
2019-01-29T12:26:18.620Z,0.90
2019-01-29T12:27:18.592Z,0.90
2019-01-29T12:28:18.580Z,0.80
2019-01-29T12:29:18.574Z,0.60
2019-01-29T12:30:18.568Z,0.80
2019-01-29T12:31:18.559Z,0.80
2019-01-29T12:32:18.534Z,0.70
2019-01-29T12:33:18.558Z,0.80
2019-01-29T12:34:18.529Z,0.60
2019-01-29T12:35:18.529Z,0.80
2019-01-29T12:36:18.607Z,0.60
2019-01-29T12:37:18.496Z,0.80
2019-01-29T12:38:18.499Z,0.90
2019-01-29T12:39:18.550Z,0.60
2019-01-29T12:40:18.475Z,0.70
2019-01-29T12:41:18.461Z,0.80
2019-01-29T12:42:18.537Z,0.60
2019-01-29T12:43:18.457Z,0.70
2019-01-29T12:44:18.395Z,0.70
2019-01-29T12:45:18.431Z,0.80
2019-01-29T12:46:18.377Z,0.50
2019-01-29T12:47:18.370Z,0.60
2019-01-29T12:48:18.363Z,0.70
2019-01-29T12:49:18.365Z,0.60
2019-01-29T12:50:18.395Z,0.70
2019-01-29T12:51:18.387Z,0.60
2019-01-29T12:52:18.307Z,0.60
2019-01-29T12:53:18.299Z,0.70
2019-01-29T12:54:18.299Z,0.70
2019-01-29T12:55:18.289Z,0.70
2019-01-29T12:56:21.607Z,0.80
2019-01-29T12:57:18.253Z,0.70
2019-01-29T12:58:18.326Z,0.70
2019-01-29T12:59:18.267Z,0.80
2019-01-29T13:00:18.219Z,0.80
2019-01-29T13:01:18.224Z,1.00
2019-01-29T13:02:18.204Z,0.90
2019-01-29T13:03:18.208Z,0.90
2019-01-29T13:04:18.178Z,1.00
2019-01-29T13:05:18.183Z,1.10
2019-01-29T13:06:18.385Z,1.00
2019-01-29T13:07:18.148Z,0.80
2019-01-29T13:08:18.135Z,0.90
2019-01-29T13:09:18.130Z,1.00
2019-01-29T13:10:18.121Z,1.10
2019-01-29T13:11:18.097Z,0.90
2019-01-29T13:12:18.448Z,0.90
2019-01-29T13:13:18.079Z,0.80
2019-01-29T13:14:18.087Z,1.00
2019-01-29T13:15:18.076Z,0.80
2019-01-29T13:16:18.056Z,1.00
2019-01-29T13:17:18.067Z,1.00
2019-01-29T13:18:18.018Z,0.90